sensor_id;sensor_type;location;lat;lon;timestamp;pressure;altitude;pressure_sealevel;temperature;humidity
78149;BME280;67396;42.664;23.382;2023-02-28T00:02:17;95378.25;;;6.06;80.23
78149;BME280;67396;42.664;23.382;2023-02-28T00:04:43;95386.16;;;6.11;79.64
78149;BME280;67396;42.664;23.382;2023-02-28T00:07:09;95390.44;;;6.24;79.14
78149;BME280;67396;42.664;23.382;2023-02-28T00:09:35;95392.66;;;6.07;79.98
78149;BME280;67396;42.664;23.382;2023-02-28T00:12:00;95391.66;;;5.87;80.89
78149;BME280;67396;42.664;23.382;2023-02-28T00:14:35;95395.31;;;5.66;81.55
78149;BME280;67396;42.664;23.382;2023-02-28T00:17:01;95391.72;;;5.62;81.71
78149;BME280;67396;42.664;23.382;2023-02-28T00:19:26;95402.69;;;5.66;81.57
78149;BME280;67396;42.664;23.382;2023-02-28T00:21:51;95407.78;;;5.80;82.21
78149;BME280;67396;42.664;23.382;2023-02-28T00:24:17;95414.03;;;5.80;81.72
78149;BME280;67396;42.664;23.382;2023-02-28T00:26:42;95418.31;;;6.06;80.57
78149;BME280;67396;42.664;23.382;2023-02-28T00:29:08;95415.22;;;6.19;79.55
78149;BME280;67396;42.664;23.382;2023-02-28T00:31:33;95403.03;;;6.29;79.55
78149;BME280;67396;42.664;23.382;2023-02-28T00:33:58;95398.88;;;6.47;78.66
78149;BME280;67396;42.664;23.382;2023-02-28T00:36:24;95414.47;;;6.62;78.26
78149;BME280;67396;42.664;23.382;2023-02-28T00:38:49;95412.16;;;6.76;77.70
78149;BME280;67396;42.664;23.382;2023-02-28T00:41:15;95414.94;;;6.80;77.64
78149;BME280;67396;42.664;23.382;2023-02-28T00:43:40;95414.13;;;6.64;78.48
78149;BME280;67396;42.664;23.382;2023-02-28T00:46:06;95399.97;;;6.58;78.17
78149;BME280;67396;42.664;23.382;2023-02-28T00:48:32;95394.09;;;6.72;78.11
78149;BME280;67396;42.664;23.382;2023-02-28T00:50:57;95390.41;;;6.80;77.29
78149;BME280;67396;42.664;23.382;2023-02-28T00:53:23;95395.84;;;6.80;77.32
78149;BME280;67396;42.664;23.382;2023-02-28T00:55:49;95386.75;;;6.60;77.84
78149;BME280;67396;42.664;23.382;2023-02-28T00:58:15;95395.16;;;6.67;77.15
78149;BME280;67396;42.664;23.382;2023-02-28T01:00:40;95405.41;;;6.58;77.35
78149;BME280;67396;42.664;23.382;2023-02-28T01:03:06;95406.25;;;6.47;77.61
78149;BME280;67396;42.664;23.382;2023-02-28T01:05:31;95403.09;;;6.60;76.94
78149;BME280;67396;42.664;23.382;2023-02-28T01:07:57;95403.31;;;6.67;76.11
78149;BME280;67396;42.664;23.382;2023-02-28T01:10:22;95409.81;;;6.63;76.37
78149;BME280;67396;42.664;23.382;2023-02-28T01:12:47;95406.22;;;6.59;76.52
78149;BME280;67396;42.664;23.382;2023-02-28T01:15:13;95404.31;;;6.47;77.13
78149;BME280;67396;42.664;23.382;2023-02-28T01:17:38;95397.63;;;6.45;77.43
78149;BME280;67396;42.664;23.382;2023-02-28T01:20:04;95398.19;;;6.50;77.03
78149;BME280;67396;42.664;23.382;2023-02-28T01:22:30;95392.81;;;6.54;76.81
78149;BME280;67396;42.664;23.382;2023-02-28T01:24:55;95390.31;;;6.33;77.48
78149;BME280;67396;42.664;23.382;2023-02-28T01:27:20;95392.91;;;6.29;77.30
78149;BME280;67396;42.664;23.382;2023-02-28T01:29:46;95393.44;;;6.35;77.41
78149;BME280;67396;42.664;23.382;2023-02-28T01:32:11;95390.84;;;6.38;77.40
78149;BME280;67396;42.664;23.382;2023-02-28T01:34:37;95384.56;;;6.10;78.51
78149;BME280;67396;42.664;23.382;2023-02-28T01:37:02;95380.38;;;6.13;78.54
78149;BME280;67396;42.664;23.382;2023-02-28T01:39:28;95391.22;;;6.25;77.98
78149;BME280;67396;42.664;23.382;2023-02-28T01:41:54;95386.91;;;5.96;79.10
78149;BME280;67396;42.664;23.382;2023-02-28T01:44:55;95394.41;;;6.27;78.08
78149;BME280;67396;42.664;23.382;2023-02-28T01:47:22;95393.03;;;6.33;77.50
78149;BME280;67396;42.664;23.382;2023-02-28T01:49:49;95394.41;;;6.55;76.82
78149;BME280;67396;42.664;23.382;2023-02-28T01:52:16;95395.88;;;6.52;76.84
78149;BME280;67396;42.664;23.382;2023-02-28T01:54:50;95398.38;;;6.57;76.32
78149;BME280;67396;42.664;23.382;2023-02-28T01:57:18;95398.34;;;6.41;77.33
78149;BME280;67396;42.664;23.382;2023-02-28T01:59:51;95402.63;;;6.15;78.23
78149;BME280;67396;42.664;23.382;2023-02-28T02:02:19;95388.91;;;5.99;78.70
78149;BME280;67396;42.664;23.382;2023-02-28T02:04:58;95393.94;;;5.97;79.14
78149;BME280;67396;42.664;23.382;2023-02-28T02:07:29;95393.94;;;5.97;78.78
78149;BME280;67396;42.664;23.382;2023-02-28T02:10:01;95403.63;;;6.22;78.15
78149;BME280;67396;42.664;23.382;2023-02-28T02:12:43;95396.81;;;6.16;78.19
78149;BME280;67396;42.664;23.382;2023-02-28T02:15:17;95389.84;;;6.31;77.53
78149;BME280;67396;42.664;23.382;2023-02-28T02:17:51;95395.81;;;6.49;76.54
78149;BME280;67396;42.664;23.382;2023-02-28T02:26:45;95389.13;;;6.62;76.54
78149;BME280;67396;42.664;23.382;2023-02-28T02:40:55;95394.41;;;6.55;77.35
78149;BME280;67396;42.664;23.382;2023-02-28T02:43:43;95402.13;;;6.53;77.59
78149;BME280;67396;42.664;23.382;2023-02-28T02:46:21;95403.34;;;6.39;78.03
78149;BME280;67396;42.664;23.382;2023-02-28T02:48:48;95410.16;;;6.33;77.89
78149;BME280;67396;42.664;23.382;2023-02-28T02:51:17;95406.84;;;6.12;78.72
78149;BME280;67396;42.664;23.382;2023-02-28T02:54:21;95400.91;;;6.22;77.55
78149;BME280;67396;42.664;23.382;2023-02-28T02:56:49;95404.69;;;6.33;77.15
78149;BME280;67396;42.664;23.382;2023-02-28T02:59:18;95414.72;;;6.29;76.44
78149;BME280;67396;42.664;23.382;2023-02-28T03:01:49;95415.09;;;6.16;77.35
78149;BME280;67396;42.664;23.382;2023-02-28T03:04:21;95420.44;;;6.24;77.64
78149;BME280;67396;42.664;23.382;2023-02-28T03:06:47;95435.06;;;6.32;76.73
78149;BME280;67396;42.664;23.382;2023-02-28T03:09:13;95431.09;;;6.29;77.06
78149;BME280;67396;42.664;23.382;2023-02-28T03:11:39;95438.47;;;6.29;77.29
78149;BME280;67396;42.664;23.382;2023-02-28T03:19:55;95439.41;;;6.21;77.29
78149;BME280;67396;42.664;23.382;2023-02-28T03:30:52;95457.47;;;6.53;76.05
78149;BME280;67396;42.664;23.382;2023-02-28T03:33:26;95453.72;;;6.58;75.85
78149;BME280;67396;42.664;23.382;2023-02-28T03:35:59;95452.91;;;6.57;76.06
78149;BME280;67396;42.664;23.382;2023-02-28T03:41:16;95463.41;;;6.71;75.92
78149;BME280;67396;42.664;23.382;2023-02-28T03:44:06;95454.13;;;6.60;76.46
78149;BME280;67396;42.664;23.382;2023-02-28T03:46:38;95466.00;;;6.52;76.95
78149;BME280;67396;42.664;23.382;2023-02-28T03:50:10;95464.81;;;6.65;76.32
78149;BME280;67396;42.664;23.382;2023-02-28T03:52:32;95465.91;;;6.76;76.14
78149;BME280;67396;42.664;23.382;2023-02-28T03:55:03;95464.66;;;6.73;76.33
78149;BME280;67396;42.664;23.382;2023-02-28T04:00:02;95464.81;;;6.65;76.77
78149;BME280;67396;42.664;23.382;2023-02-28T04:02:31;95461.63;;;6.63;76.48
78149;BME280;67396;42.664;23.382;2023-02-28T04:04:56;95476.34;;;6.58;76.60
78149;BME280;67396;42.664;23.382;2023-02-28T04:07:22;95478.75;;;6.48;77.27
78149;BME280;67396;42.664;23.382;2023-02-28T04:09:47;95463.72;;;6.54;77.42
78149;BME280;67396;42.664;23.382;2023-02-28T04:12:13;95460.38;;;6.60;76.96
78149;BME280;67396;42.664;23.382;2023-02-28T04:14:38;95469.94;;;6.66;76.20
78149;BME280;67396;42.664;23.382;2023-02-28T04:17:03;95472.75;;;6.70;75.93
78149;BME280;67396;42.664;23.382;2023-02-28T04:19:29;95463.50;;;6.59;76.22
78149;BME280;67396;42.664;23.382;2023-02-28T04:21:55;95466.28;;;6.62;76.14
78149;BME280;67396;42.664;23.382;2023-02-28T04:24:25;95465.69;;;6.69;76.22
78149;BME280;67396;42.664;23.382;2023-02-28T04:26:53;95467.66;;;6.68;76.00
78149;BME280;67396;42.664;23.382;2023-02-28T04:29:32;95462.09;;;6.65;75.64
78149;BME280;67396;42.664;23.382;2023-02-28T04:31:59;95468.28;;;6.50;76.80
78149;BME280;67396;42.664;23.382;2023-02-28T04:34:26;95478.88;;;6.39;76.83
78149;BME280;67396;42.664;23.382;2023-02-28T04:36:54;95470.19;;;6.21;77.70
78149;BME280;67396;42.664;23.382;2023-02-28T04:39:21;95475.72;;;6.25;77.53
78149;BME280;67396;42.664;23.382;2023-02-28T04:41:46;95482.91;;;6.17;77.56
78149;BME280;67396;42.664;23.382;2023-02-28T04:44:13;95488.94;;;6.11;77.95
78149;BME280;67396;42.664;23.382;2023-02-28T04:46:38;95483.03;;;6.09;78.07
78149;BME280;67396;42.664;23.382;2023-02-28T04:49:04;95494.75;;;5.97;78.74
78149;BME280;67396;42.664;23.382;2023-02-28T04:51:29;95493.16;;;5.96;78.28
78149;BME280;67396;42.664;23.382;2023-02-28T04:53:55;95495.31;;;5.90;78.38
78149;BME280;67396;42.664;23.382;2023-02-28T04:56:21;95494.25;;;5.83;78.35
78149;BME280;67396;42.664;23.382;2023-02-28T04:58:47;95490.41;;;5.84;78.70
78149;BME280;67396;42.664;23.382;2023-02-28T05:03:47;95500.63;;;5.87;78.48
78149;BME280;67396;42.664;23.382;2023-02-28T05:06:13;95493.16;;;5.96;78.26
78149;BME280;67396;42.664;23.382;2023-02-28T05:08:39;95498.56;;;5.84;78.26
78149;BME280;67396;42.664;23.382;2023-02-28T05:11:21;95494.25;;;5.83;78.42
78149;BME280;67396;42.664;23.382;2023-02-28T05:13:47;95499.03;;;5.86;77.98
78149;BME280;67396;42.664;23.382;2023-02-28T05:16:12;95496.75;;;5.76;78.48
78149;BME280;67396;42.664;23.382;2023-02-28T05:18:38;95499.16;;;5.89;78.20
78149;BME280;67396;42.664;23.382;2023-02-28T05:21:04;95507.34;;;5.89;78.14
78149;BME280;67396;42.664;23.382;2023-02-28T05:23:30;95502.47;;;5.95;78.05
78149;BME280;67396;42.664;23.382;2023-02-28T05:25:55;95501.22;;;6.04;77.79
78149;BME280;67396;42.664;23.382;2023-02-28T05:28:21;95509.72;;;6.03;77.72
78149;BME280;67396;42.664;23.382;2023-02-28T05:30:47;95509.28;;;5.89;78.87
78149;BME280;67396;42.664;23.382;2023-02-28T05:33:13;95516.97;;;5.99;78.33
78149;BME280;67396;42.664;23.382;2023-02-28T05:35:42;95513.94;;;5.88;78.88
78149;BME280;67396;42.664;23.382;2023-02-28T05:38:10;95518.56;;;5.76;79.76
78149;BME280;67396;42.664;23.382;2023-02-28T05:40:38;95516.16;;;5.74;79.70
78149;BME280;67396;42.664;23.382;2023-02-28T05:43:04;95523.88;;;5.60;80.56
78149;BME280;67396;42.664;23.382;2023-02-28T05:45:29;95533.75;;;5.52;81.13
78149;BME280;67396;42.664;23.382;2023-02-28T05:47:55;95533.41;;;5.66;80.30
78149;BME280;67396;42.664;23.382;2023-02-28T05:50:21;95520.59;;;5.66;80.26
78149;BME280;67396;42.664;23.382;2023-02-28T05:52:50;95528.44;;;5.80;79.82
78149;BME280;67396;42.664;23.382;2023-02-28T05:55:16;95537.19;;;6.10;82.00
78149;BME280;67396;42.664;23.382;2023-02-28T05:57:41;95540.84;;;6.02;79.50
78149;BME280;67396;42.664;23.382;2023-02-28T06:00:08;95543.66;;;6.18;83.64
78149;BME280;67396;42.664;23.382;2023-02-28T06:02:34;95536.00;;;6.48;80.78
78149;BME280;67396;42.664;23.382;2023-02-28T06:05:00;95534.44;;;6.34;81.16
78149;BME280;67396;42.664;23.382;2023-02-28T06:07:25;95536.81;;;6.36;78.79
78149;BME280;67396;42.664;23.382;2023-02-28T06:09:50;95540.72;;;6.23;78.59
78149;BME280;67396;42.664;23.382;2023-02-28T06:12:16;95530.56;;;6.35;77.96
78149;BME280;67396;42.664;23.382;2023-02-28T06:14:42;95534.63;;;6.54;76.78
78149;BME280;67396;42.664;23.382;2023-02-28T06:17:09;95532.41;;;6.31;77.65
78149;BME280;67396;42.664;23.382;2023-02-28T06:19:37;95533.50;;;6.55;76.66
78149;BME280;67396;42.664;23.382;2023-02-28T06:22:04;95534.34;;;6.71;75.71
78149;BME280;67396;42.664;23.382;2023-02-28T06:24:29;95538.53;;;6.80;75.45
78149;BME280;67396;42.664;23.382;2023-02-28T06:26:56;95534.06;;;6.88;75.26
78149;BME280;67396;42.664;23.382;2023-02-28T06:29:25;95540.50;;;6.96;74.68
78149;BME280;67396;42.664;23.382;2023-02-28T06:31:50;95540.78;;;6.91;74.46
78149;BME280;67396;42.664;23.382;2023-02-28T06:34:16;95554.81;;;6.77;74.77
78149;BME280;67396;42.664;23.382;2023-02-28T06:36:42;95547.59;;;6.45;76.43
78149;BME280;67396;42.664;23.382;2023-02-28T06:39:08;95543.06;;;6.49;76.42
78149;BME280;67396;42.664;23.382;2023-02-28T06:41:35;95537.47;;;6.45;76.51
78149;BME280;67396;42.664;23.382;2023-02-28T06:44:04;95544.19;;;6.48;76.33
78149;BME280;67396;42.664;23.382;2023-02-28T06:46:31;95543.94;;;6.53;75.85
78149;BME280;67396;42.664;23.382;2023-02-28T06:48:57;95549.66;;;6.48;75.66
78149;BME280;67396;42.664;23.382;2023-02-28T06:51:23;95552.03;;;6.37;75.98
78149;BME280;67396;42.664;23.382;2023-02-28T06:53:50;95555.00;;;6.32;76.88
78149;BME280;67396;42.664;23.382;2023-02-28T06:56:17;95556.47;;;6.41;76.78
78149;BME280;67396;42.664;23.382;2023-02-28T06:58:49;95560.81;;;6.30;77.59
78149;BME280;67396;42.664;23.382;2023-02-28T07:01:16;95556.38;;;6.26;78.22
78149;BME280;67396;42.664;23.382;2023-02-28T07:03:42;95565.25;;;6.23;77.99
78149;BME280;67396;42.664;23.382;2023-02-28T07:06:07;95558.41;;;6.41;76.90
78149;BME280;67396;42.664;23.382;2023-02-28T07:08:34;95558.50;;;6.57;76.22
78149;BME280;67396;42.664;23.382;2023-02-28T07:11:01;95556.88;;;6.68;75.76
78149;BME280;67396;42.664;23.382;2023-02-28T07:13:27;95560.25;;;6.77;75.48
78149;BME280;67396;42.664;23.382;2023-02-28T07:15:54;95553.13;;;6.60;76.46
78149;BME280;67396;42.664;23.382;2023-02-28T07:18:22;95545.31;;;6.59;76.63
78149;BME280;67396;42.664;23.382;2023-02-28T07:20:49;95548.06;;;6.47;77.39
78149;BME280;67396;42.664;23.382;2023-02-28T07:23:15;95551.78;;;6.42;77.73
78149;BME280;67396;42.664;23.382;2023-02-28T07:25:40;95566.34;;;6.46;77.75
78149;BME280;67396;42.664;23.382;2023-02-28T07:28:06;95560.84;;;6.70;76.54
78149;BME280;67396;42.664;23.382;2023-02-28T07:30:31;95562.16;;;6.89;76.00
78149;BME280;67396;42.664;23.382;2023-02-28T07:32:57;95565.19;;;6.99;75.18
78149;BME280;67396;42.664;23.382;2023-02-28T07:35:23;95567.78;;;6.96;75.40
78149;BME280;67396;42.664;23.382;2023-02-28T07:37:49;95558.59;;;7.00;75.36
78149;BME280;67396;42.664;23.382;2023-02-28T07:40:15;95564.91;;;7.04;75.87
78149;BME280;67396;42.664;23.382;2023-02-28T07:42:41;95558.78;;;7.07;75.79
78149;BME280;67396;42.664;23.382;2023-02-28T07:45:11;95553.81;;;6.97;75.95
78149;BME280;67396;42.664;23.382;2023-02-28T07:47:38;95559.47;;;7.04;76.42
78149;BME280;67396;42.664;23.382;2023-02-28T07:50:05;95555.72;;;7.09;76.77
78149;BME280;67396;42.664;23.382;2023-02-28T07:52:30;95556.63;;;7.72;86.56
78149;BME280;67396;42.664;23.382;2023-02-28T07:54:56;95557.28;;;9.02;87.74
78149;BME280;67396;42.664;23.382;2023-02-28T07:57:21;95546.31;;;9.40;70.78
78149;BME280;67396;42.664;23.382;2023-02-28T07:59:47;95543.16;;;9.19;70.17
78149;BME280;67396;42.664;23.382;2023-02-28T08:02:17;95543.84;;;8.58;72.32
78149;BME280;67396;42.664;23.382;2023-02-28T08:04:44;95543.88;;;8.27;73.92
78149;BME280;67396;42.664;23.382;2023-02-28T08:07:10;95546.03;;;8.34;73.67
78149;BME280;67396;42.664;23.382;2023-02-28T08:09:41;95557.47;;;8.39;74.01
78149;BME280;67396;42.664;23.382;2023-02-28T08:12:07;95555.34;;;8.48;73.69
78149;BME280;67396;42.664;23.382;2023-02-28T08:14:33;95558.53;;;8.50;74.21
78149;BME280;67396;42.664;23.382;2023-02-28T08:16:58;95549.22;;;8.55;74.15
78149;BME280;67396;42.664;23.382;2023-02-28T08:19:24;95548.19;;;8.59;74.56
78149;BME280;67396;42.664;23.382;2023-02-28T08:21:50;95555.59;;;8.59;75.19
78149;BME280;67396;42.664;23.382;2023-02-28T08:24:15;95544.44;;;8.67;74.95
78149;BME280;67396;42.664;23.382;2023-02-28T08:26:43;95555.16;;;8.57;75.63
78149;BME280;67396;42.664;23.382;2023-02-28T08:32:29;95564.16;;;8.57;75.84
78149;BME280;67396;42.664;23.382;2023-02-28T08:34:54;95560.97;;;8.55;76.19
78149;BME280;67396;42.664;23.382;2023-02-28T08:37:20;95565.91;;;8.65;76.28
78149;BME280;67396;42.664;23.382;2023-02-28T08:39:47;95562.41;;;8.84;75.46
78149;BME280;67396;42.664;23.382;2023-02-28T08:42:12;95558.22;;;9.10;75.64
78149;BME280;67396;42.664;23.382;2023-02-28T08:44:38;95556.72;;;9.12;74.55
78149;BME280;67396;42.664;23.382;2023-02-28T08:47:03;95568.38;;;9.09;74.36
78149;BME280;67396;42.664;23.382;2023-02-28T08:49:29;95572.63;;;9.06;74.47
78149;BME280;67396;42.664;23.382;2023-02-28T08:51:55;95558.13;;;9.06;74.67
78149;BME280;67396;42.664;23.382;2023-02-28T08:54:23;95552.13;;;8.97;74.19
78149;BME280;67396;42.664;23.382;2023-02-28T08:56:51;95560.91;;;8.87;74.01
78149;BME280;67396;42.664;23.382;2023-02-28T08:59:22;95573.78;;;8.86;74.34
78149;BME280;67396;42.664;23.382;2023-02-28T09:01:54;95563.34;;;8.92;74.98
78149;BME280;67396;42.664;23.382;2023-02-28T09:04:26;95564.22;;;8.96;74.94
78149;BME280;67396;42.664;23.382;2023-02-28T09:07:00;95583.09;;;9.01;74.65
78149;BME280;67396;42.664;23.382;2023-02-28T09:09:26;95569.69;;;8.96;74.54
78149;BME280;67396;42.664;23.382;2023-02-28T09:11:51;95570.41;;;8.93;74.71
78149;BME280;67396;42.664;23.382;2023-02-28T09:14:20;95559.38;;;8.89;74.63
78149;BME280;67396;42.664;23.382;2023-02-28T09:16:45;95570.31;;;8.89;75.22
78149;BME280;67396;42.664;23.382;2023-02-28T09:19:12;95571.09;;;8.90;75.20
78149;BME280;67396;42.664;23.382;2023-02-28T09:21:38;95566.50;;;8.94;74.81
78149;BME280;67396;42.664;23.382;2023-02-28T09:24:04;95573.44;;;8.88;75.19
78149;BME280;67396;42.664;23.382;2023-02-28T09:26:30;95564.69;;;8.82;75.61
78149;BME280;67396;42.664;23.382;2023-02-28T09:28:55;95554.84;;;8.78;75.59
78149;BME280;67396;42.664;23.382;2023-02-28T09:31:26;95559.31;;;8.86;75.30
78149;BME280;67396;42.664;23.382;2023-02-28T09:33:56;95565.03;;;8.81;74.80
78149;BME280;67396;42.664;23.382;2023-02-28T09:36:23;95553.69;;;8.79;74.94
78149;BME280;67396;42.664;23.382;2023-02-28T09:38:51;95572.63;;;8.87;74.71
78149;BME280;67396;42.664;23.382;2023-02-28T09:41:24;95560.34;;;8.97;74.69
78149;BME280;67396;42.664;23.382;2023-02-28T09:43:56;95564.56;;;8.94;74.32
78149;BME280;67396;42.664;23.382;2023-02-28T09:46:42;95557.94;;;8.95;73.75
78149;BME280;67396;42.664;23.382;2023-02-28T09:49:12;95554.13;;;9.00;74.05
78149;BME280;67396;42.664;23.382;2023-02-28T09:51:49;95544.97;;;8.92;73.80
78149;BME280;67396;42.664;23.382;2023-02-28T09:54:28;95553.31;;;8.99;73.34
78149;BME280;67396;42.664;23.382;2023-02-28T10:05:14;95550.50;;;9.15;73.07
78149;BME280;67396;42.664;23.382;2023-02-28T10:07:53;95556.84;;;9.19;71.74
78149;BME280;67396;42.664;23.382;2023-02-28T10:10:49;95542.38;;;9.19;72.29
78149;BME280;67396;42.664;23.382;2023-02-28T10:13:31;95533.50;;;9.25;72.68
78149;BME280;67396;42.664;23.382;2023-02-28T10:16:16;95556.63;;;9.28;71.91
78149;BME280;67396;42.664;23.382;2023-02-28T10:18:46;95531.97;;;9.28;71.22
78149;BME280;67396;42.664;23.382;2023-02-28T10:21:28;95544.53;;;9.29;70.65
78149;BME280;67396;42.664;23.382;2023-02-28T10:24:03;95534.81;;;9.31;70.97
78149;BME280;67396;42.664;23.382;2023-02-28T10:26:32;95540.78;;;9.37;70.77
78149;BME280;67396;42.664;23.382;2023-02-28T10:28:58;95532.75;;;9.48;70.67
78149;BME280;67396;42.664;23.382;2023-02-28T10:31:23;95525.50;;;9.59;69.96
78149;BME280;67396;42.664;23.382;2023-02-28T10:33:49;95511.00;;;9.35;70.79
78149;BME280;67396;42.664;23.382;2023-02-28T10:36:19;95522.03;;;9.39;69.74
78149;BME280;67396;42.664;23.382;2023-02-28T10:38:46;95515.00;;;9.41;69.82
78149;BME280;67396;42.664;23.382;2023-02-28T10:41:26;95520.69;;;9.52;69.81
78149;BME280;67396;42.664;23.382;2023-02-28T10:43:52;95502.81;;;9.58;70.16
78149;BME280;67396;42.664;23.382;2023-02-28T10:46:19;95508.03;;;9.67;69.93
78149;BME280;67396;42.664;23.382;2023-02-28T10:49:03;95493.56;;;9.66;70.09
78149;BME280;67396;42.664;23.382;2023-02-28T10:51:38;95503.13;;;9.76;69.66
78149;BME280;67396;42.664;23.382;2023-02-28T10:54:05;95497.31;;;9.81;69.78
78149;BME280;67396;42.664;23.382;2023-02-28T10:56:32;95486.34;;;9.81;69.22
78149;BME280;67396;42.664;23.382;2023-02-28T11:01:41;95486.34;;;9.81;68.67
78149;BME280;67396;42.664;23.382;2023-02-28T11:07:03;95481.66;;;9.59;69.20
78149;BME280;67396;42.664;23.382;2023-02-28T11:09:38;95486.41;;;9.62;69.38
78149;BME280;67396;42.664;23.382;2023-02-28T11:12:07;95487.44;;;9.54;69.62
78149;BME280;67396;42.664;23.382;2023-02-28T11:14:40;95466.38;;;9.58;69.85
78149;BME280;67396;42.664;23.382;2023-02-28T11:17:21;95470.16;;;9.50;69.42
78149;BME280;67396;42.664;23.382;2023-02-28T11:19:51;95474.84;;;9.49;69.20
78149;BME280;67396;42.664;23.382;2023-02-28T11:22:22;95475.94;;;9.44;70.18
78149;BME280;67396;42.664;23.382;2023-02-28T11:24:52;95471.25;;;9.45;69.21
78149;BME280;67396;42.664;23.382;2023-02-28T11:29:57;95472.41;;;9.67;68.56
78149;BME280;67396;42.664;23.382;2023-02-28T11:32:28;95472.66;;;9.58;69.75
78149;BME280;67396;42.664;23.382;2023-02-28T11:35:03;95471.88;;;9.58;69.46
78149;BME280;67396;42.664;23.382;2023-02-28T11:37:30;95490.19;;;9.54;70.11
78149;BME280;67396;42.664;23.382;2023-02-28T11:39:57;95463.56;;;9.54;69.83
78149;BME280;67396;42.664;23.382;2023-02-28T11:42:44;95465.53;;;9.54;69.95
78149;BME280;67396;42.664;23.382;2023-02-28T11:53:51;95456.13;;;9.77;68.89
78149;BME280;67396;42.664;23.382;2023-02-28T12:12:50;95448.09;;;9.65;68.76
78149;BME280;67396;42.664;23.382;2023-02-28T12:20:37;95433.53;;;9.84;68.36
78149;BME280;67396;42.664;23.382;2023-02-28T12:26:05;95434.00;;;9.90;67.48
78149;BME280;67396;42.664;23.382;2023-02-28T12:28:46;95436.53;;;10.02;67.46
78149;BME280;67396;42.664;23.382;2023-02-28T12:31:23;95446.22;;;9.96;66.94
78149;BME280;67396;42.664;23.382;2023-02-28T12:33:52;95431.63;;;9.88;68.26
78149;BME280;67396;42.664;23.382;2023-02-28T12:36:19;95440.28;;;9.90;68.45
78149;BME280;67396;42.664;23.382;2023-02-28T12:39:00;95439.31;;;9.79;67.02
78149;BME280;67396;42.664;23.382;2023-02-28T12:41:59;95431.56;;;9.85;67.24
78149;BME280;67396;42.664;23.382;2023-02-28T12:44:35;95427.38;;;9.94;67.25
78149;BME280;67396;42.664;23.382;2023-02-28T12:47:04;95419.75;;;10.07;66.05
78149;BME280;67396;42.664;23.382;2023-02-28T12:49:50;95420.97;;;10.09;66.73
78149;BME280;67396;42.664;23.382;2023-02-28T12:52:27;95424.66;;;9.94;67.46
78149;BME280;67396;42.664;23.382;2023-02-28T13:03:12;95418.63;;;9.85;67.20
78149;BME280;67396;42.664;23.382;2023-02-28T13:06:05;95427.25;;;9.84;66.86
78149;BME280;67396;42.664;23.382;2023-02-28T13:11:25;95420.91;;;9.79;66.86
78149;BME280;67396;42.664;23.382;2023-02-28T13:14:02;95416.31;;;9.61;67.84
78149;BME280;67396;42.664;23.382;2023-02-28T13:24:54;95410.19;;;9.71;67.73
78149;BME280;67396;42.664;23.382;2023-02-28T13:27:34;95410.41;;;9.85;67.32
78149;BME280;67396;42.664;23.382;2023-02-28T13:30:01;95406.50;;;9.86;66.29
78149;BME280;67396;42.664;23.382;2023-02-28T13:32:35;95404.28;;;9.69;66.39
78149;BME280;67396;42.664;23.382;2023-02-28T13:37:34;95404.19;;;9.88;65.81
78149;BME280;67396;42.664;23.382;2023-02-28T13:47:42;95403.72;;;9.82;66.55
78149;BME280;67396;42.664;23.382;2023-02-28T13:50:32;95391.91;;;9.78;66.18
78149;BME280;67396;42.664;23.382;2023-02-28T13:56:03;95385.22;;;9.76;65.91
78149;BME280;67396;42.664;23.382;2023-02-28T14:06:55;95409.03;;;9.72;66.18
78149;BME280;67396;42.664;23.382;2023-02-28T14:09:41;95407.66;;;9.59;66.97
78149;BME280;67396;42.664;23.382;2023-02-28T14:18:01;95410.53;;;9.66;67.21
78149;BME280;67396;42.664;23.382;2023-02-28T14:20:31;95402.13;;;9.55;67.25
78149;BME280;67396;42.664;23.382;2023-02-28T14:28:44;95405.44;;;9.68;67.41
78149;BME280;67396;42.664;23.382;2023-02-28T14:31:15;95413.44;;;9.54;67.82
78149;BME280;67396;42.664;23.382;2023-02-28T14:36:39;95412.59;;;9.04;69.56
78149;BME280;67396;42.664;23.382;2023-02-28T14:41:39;95410.59;;;9.01;70.12
78149;BME280;67396;42.664;23.382;2023-02-28T14:44:25;95413.31;;;9.01;70.40
78149;BME280;67396;42.664;23.382;2023-02-28T14:46:59;95408.16;;;9.19;69.44
78149;BME280;67396;42.664;23.382;2023-02-28T14:49:42;95407.56;;;9.29;69.26
78149;BME280;67396;42.664;23.382;2023-02-28T14:52:15;95415.22;;;9.20;69.52
78149;BME280;67396;42.664;23.382;2023-02-28T14:54:43;95415.16;;;9.16;69.49
78149;BME280;67396;42.664;23.382;2023-02-28T14:57:26;95415.31;;;9.23;69.12
78149;BME280;67396;42.664;23.382;2023-02-28T15:02:43;95423.69;;;9.11;69.47
78149;BME280;67396;42.664;23.382;2023-02-28T15:07:47;95426.19;;;9.20;68.84
78149;BME280;67396;42.664;23.382;2023-02-28T15:10:23;95409.81;;;9.23;68.65
78149;BME280;67396;42.664;23.382;2023-02-28T15:12:59;95419.03;;;9.15;68.71
78149;BME280;67396;42.664;23.382;2023-02-28T15:15:35;95409.44;;;9.02;69.11
78149;BME280;67396;42.664;23.382;2023-02-28T15:18:18;95404.75;;;9.02;69.37
78149;BME280;67396;42.664;23.382;2023-02-28T15:20:47;95405.31;;;9.12;69.09
78149;BME280;67396;42.664;23.382;2023-02-28T15:23:14;95418.28;;;9.15;68.85
78149;BME280;67396;42.664;23.382;2023-02-28T15:25:43;95419.78;;;9.12;68.96
78149;BME280;67396;42.664;23.382;2023-02-28T15:28:17;95426.00;;;9.09;69.29
78149;BME280;67396;42.664;23.382;2023-02-28T15:30:59;95429.88;;;9.08;69.63
78149;BME280;67396;42.664;23.382;2023-02-28T15:33:30;95433.25;;;9.21;68.94
78149;BME280;67396;42.664;23.382;2023-02-28T15:36:14;95435.47;;;9.15;69.06
78149;BME280;67396;42.664;23.382;2023-02-28T15:39:01;95438.53;;;9.10;68.68
78149;BME280;67396;42.664;23.382;2023-02-28T15:41:36;95435.34;;;9.08;69.24
78149;BME280;67396;42.664;23.382;2023-02-28T15:44:37;95449.72;;;9.01;69.33
78149;BME280;67396;42.664;23.382;2023-02-28T15:49:38;95435.31;;;8.85;69.88
78149;BME280;67396;42.664;23.382;2023-02-28T15:52:17;95440.56;;;8.94;70.06
78149;BME280;67396;42.664;23.382;2023-02-28T15:54:46;95443.78;;;8.99;70.15